Mid Hudson, NY (12555)

7:43 AM EDT on September 01, 2014 (GMT -0400)
Beacon | Change Station
CLOSE
Current Station
Personal Weather Station
Location: Beacon, NY
Elevation: 180 ft
Nearby Weather Stations

Elev 180 ft 41.50 °N, 73.96 °W | Updated 13 minutes ago

Mostly Cloudy
Mostly Cloudy
71.2 °F
Feels Like 71.2 °F
N
1.1
Wind Variable Wind from West

Today
High -- | Low -- °F
--% Chance of Precip.
Yesterday
High -- | Low -- °F
Precip. -- in
6:22 AM 7:29 PM
Waxing Crescent, 40% visible
Pressure 30.01 in
Visibility 4.0 miles
Clouds Scattered Clouds 300 ft
Mostly Cloudy 8000 ft
Dew Point 71 °F
Humidity 99%
Rainfall 0.00 in
Snow Depth Not available.
UV 0 out of 12
Pollen 5.10 out of 12
PM2.5 Good
Flu Activity Not available.
METAR KSWF 010945Z VRB03KT 4SM BR SCT003 BKN080 21/21 A3001

More Conditions Fewer Conditions

Pressure 30.01 in
Visibility 4.0 miles
Clouds Scattered Clouds 300 ft
Mostly Cloudy 8000 ft
Dew Point 71 °F
Humidity 99%
Rainfall 0.00 in
Snow Depth Not available.
UV 0 out of 12
Pollen 5.10 out of 12
PM2.5 Good
Flu Activity Not available.
METAR KSWF 010945Z VRB03KT 4SM BR SCT003 BKN080 21/21 A3001

More Conditions Fewer Conditions

10-Day Weather Forecast

Almanac

Astronomy

Sep. 01, 2014 Rise Set
Actual Time 6:22 AM EDT 7:29 PM EDT
Civil Twilight 5:53 AM EDT 7:57 PM EDT
Nautical Twilight 5:19 AM EDT 8:31 PM EDT
Astronomical Twilight 4:43 AM EDT 9:06 PM EDT
Moon 1:10 PM EDT 11:23 PM EDT
Length of Visible Light 14h 03m
Length of Day
13h 06m
Tomorrow will be 2m 40s shorter.
Waxing Crescent, 40% of the Moon is Illuminated
Today
Waxing Crescent
Sep 2
First Quarter
Sep 8
Full
Sep 15
Last Quarter
Sep 24
New

Today's Extremes

State Highs State Lows

Community

WunderPhotos

Upload Photos

1,749,192 photos uploaded!

Nearby

Air Quality

  Air Quality AQ Index Pollutant
Yesterday Good
PM2.5
Yesterday Good
OZONE
Current Good
PM2.5
Monday Moderate
OZONE
Monday Moderate
PM2.5
Tuesday Moderate
OZONE
Tuesday Moderate
PM2.5

Snow Depth

Station Depth Elevation
No new snow has been reported.

Earthquake Activity

City Distance Mag. Time & Date
No recent earthquake activity has been reported nearby.
Minimum magnitude displayed is 2.5.

Coastal Water Temperatures

Place Temperature
No Stations Reporting

Nearby Weather Stations